createdAt,value
2022-07-29T00:01:03.557Z,17.58
2022-07-29T00:03:30.749Z,17.66
2022-07-29T00:05:58.277Z,17.69
2022-07-29T00:08:25.415Z,17.61
2022-07-29T00:10:52.636Z,17.56
2022-07-29T00:13:32.393Z,17.63
2022-07-29T00:16:03.665Z,17.62
2022-07-29T00:18:32.691Z,17.63
2022-07-29T00:20:59.888Z,17.56
2022-07-29T00:23:27.103Z,17.48
2022-07-29T00:25:54.307Z,17.14
2022-07-29T00:28:21.486Z,17.25
2022-07-29T00:30:48.775Z,17.27
2022-07-29T00:33:15.931Z,17.33
2022-07-29T00:35:46.069Z,17.36
2022-07-29T00:38:13.732Z,17.32
2022-07-29T00:40:43.242Z,17.31
2022-07-29T00:43:11.948Z,17.36
2022-07-29T00:45:39.153Z,17.34
2022-07-29T00:48:07.480Z,17.24
2022-07-29T00:50:34.835Z,17.11
2022-07-29T00:53:02.267Z,17.12
2022-07-29T00:55:29.435Z,17.18
2022-07-29T00:57:56.822Z,17.16
2022-07-29T01:00:25.463Z,16.95
2022-07-29T01:02:52.726Z,16.99
2022-07-29T01:05:20.829Z,16.94
2022-07-29T01:07:48.961Z,16.98
2022-07-29T01:10:16.232Z,17.00
2022-07-29T01:12:43.865Z,16.99
2022-07-29T01:15:11.156Z,16.85
2022-07-29T01:17:53.683Z,16.84
2022-07-29T01:20:31.889Z,16.68
2022-07-29T01:22:59.178Z,16.51
2022-07-29T01:25:53.075Z,16.45
2022-07-29T01:28:42.081Z,16.48
2022-07-29T01:31:09.890Z,16.16
2022-07-29T01:33:51.222Z,16.14
2022-07-29T01:36:19.915Z,16.19
2022-07-29T01:38:51.420Z,16.14
2022-07-29T01:41:18.627Z,16.05
2022-07-29T01:43:50.761Z,16.03
2022-07-29T01:46:22.084Z,16.00
2022-07-29T01:48:50.151Z,16.02
2022-07-29T01:51:21.523Z,16.04
2022-07-29T01:53:53.141Z,16.14
2022-07-29T01:56:20.329Z,16.15
2022-07-29T01:58:47.479Z,15.94
2022-07-29T02:01:15.678Z,16.10
2022-07-29T02:03:44.119Z,16.13
2022-07-29T02:06:11.289Z,16.14
2022-07-29T02:08:38.482Z,16.22
2022-07-29T02:11:05.685Z,16.25
2022-07-29T02:13:32.841Z,16.29
2022-07-29T02:16:00.453Z,16.26
2022-07-29T02:18:27.678Z,16.24
2022-07-29T02:20:55.191Z,16.21
2022-07-29T02:23:23.025Z,16.34
2022-07-29T02:25:50.451Z,16.41
2022-07-29T02:28:17.673Z,16.46
2022-07-29T02:30:44.892Z,16.43
2022-07-29T02:33:13.484Z,16.37
2022-07-29T02:35:41.090Z,16.32
2022-07-29T02:38:27.690Z,16.38
2022-07-29T02:40:54.850Z,16.47
2022-07-29T02:43:22.064Z,16.41
2022-07-29T02:45:51.921Z,16.36
2022-07-29T02:48:19.444Z,16.43
2022-07-29T02:50:50.177Z,16.36
2022-07-29T02:53:19.144Z,16.25
2022-07-29T02:55:56.666Z,16.16
2022-07-29T02:58:30.525Z,16.32
2022-07-29T03:00:58.133Z,16.34
2022-07-29T03:03:26.354Z,16.22
2022-07-29T03:05:55.330Z,16.17
2022-07-29T03:08:22.761Z,16.26
2022-07-29T03:10:49.937Z,16.01
2022-07-29T03:13:17.093Z,15.99
2022-07-29T03:15:44.658Z,16.12
2022-07-29T03:18:11.851Z,16.23
2022-07-29T03:20:39.571Z,16.13
2022-07-29T03:23:06.761Z,16.19
2022-07-29T03:25:33.915Z,16.20
2022-07-29T03:28:01.079Z,16.30
2022-07-29T03:30:28.882Z,16.20
2022-07-29T03:32:56.591Z,16.11
2022-07-29T03:35:25.920Z,16.11
2022-07-29T03:37:53.111Z,16.00
2022-07-29T03:40:46.650Z,16.12
2022-07-29T03:43:13.846Z,16.09
2022-07-29T03:45:41.352Z,16.14
2022-07-29T03:48:09.677Z,16.12
2022-07-29T03:50:36.981Z,16.17
2022-07-29T03:53:04.200Z,16.26
2022-07-29T03:55:33.576Z,16.25
2022-07-29T03:58:00.741Z,16.26
2022-07-29T04:00:27.971Z,16.09
2022-07-29T04:02:55.134Z,16.07
2022-07-29T04:05:22.336Z,15.99
2022-07-29T04:07:49.620Z,16.15
2022-07-29T04:10:17.924Z,16.37
2022-07-29T04:12:57.509Z,16.48
2022-07-29T04:15:24.701Z,16.43
2022-07-29T04:17:51.947Z,16.38
2022-07-29T04:20:19.487Z,16.40
2022-07-29T04:22:46.685Z,16.35
2022-07-29T04:25:13.881Z,16.36
2022-07-29T04:28:01.005Z,16.42
2022-07-29T04:30:28.264Z,16.54
2022-07-29T04:32:55.609Z,16.59
2022-07-29T04:35:22.788Z,16.58
2022-07-29T04:37:49.954Z,16.67
2022-07-29T04:40:17.104Z,16.75
2022-07-29T04:42:46.681Z,16.67
2022-07-29T04:45:15.241Z,16.52
2022-07-29T04:47:43.281Z,16.60
2022-07-29T04:50:10.643Z,16.74
2022-07-29T04:52:37.812Z,16.73
2022-07-29T04:55:05.491Z,16.66
2022-07-29T04:57:32.663Z,16.72
2022-07-29T05:00:00.115Z,16.83
2022-07-29T05:02:27.336Z,17.06
2022-07-29T05:04:54.672Z,17.22
2022-07-29T05:07:21.863Z,17.33
2022-07-29T05:09:50.038Z,17.25
2022-07-29T05:12:17.348Z,17.26
2022-07-29T05:14:44.572Z,17.36
2022-07-29T05:17:11.909Z,17.28
2022-07-29T05:19:39.857Z,17.42
2022-07-29T05:22:07.144Z,17.54
2022-07-29T05:24:34.361Z,17.66
2022-07-29T05:27:01.604Z,17.73
2022-07-29T05:29:42.862Z,17.77
2022-07-29T05:32:12.816Z,17.80
2022-07-29T05:34:51.409Z,17.97
2022-07-29T05:37:22.036Z,17.95
2022-07-29T05:39:56.827Z,18.13
2022-07-29T05:42:25.315Z,18.13
2022-07-29T05:44:52.852Z,18.28
2022-07-29T05:47:20.065Z,18.39
2022-07-29T05:49:47.237Z,18.48
2022-07-29T05:52:14.416Z,18.65
2022-07-29T05:54:41.676Z,18.66
2022-07-29T05:57:09.013Z,18.82
2022-07-29T05:59:36.772Z,18.78
2022-07-29T06:02:06.078Z,18.69
2022-07-29T06:04:33.487Z,18.65
2022-07-29T06:07:00.716Z,18.56
2022-07-29T06:09:29.243Z,18.55
2022-07-29T06:11:56.594Z,18.68
2022-07-29T06:14:23.776Z,18.79
2022-07-29T06:16:51.067Z,18.96
2022-07-29T06:19:18.280Z,18.74
2022-07-29T06:21:47.653Z,18.86
2022-07-29T06:24:15.373Z,18.90
2022-07-29T06:26:42.896Z,19.17
2022-07-29T06:29:11.597Z,19.34
2022-07-29T06:31:39.085Z,19.38
2022-07-29T06:34:06.395Z,19.45
2022-07-29T06:36:37.894Z,19.49
2022-07-29T06:39:09.808Z,19.62
2022-07-29T06:41:38.917Z,19.92
2022-07-29T06:44:06.074Z,20.53
2022-07-29T06:46:37.896Z,20.57
2022-07-29T06:49:05.413Z,21.08
2022-07-29T06:51:32.817Z,21.27
2022-07-29T06:54:02.778Z,21.41
2022-07-29T06:56:31.452Z,21.31
2022-07-29T06:58:58.686Z,21.33
2022-07-29T07:01:26.015Z,21.30
2022-07-29T07:03:53.244Z,21.70
2022-07-29T07:06:20.537Z,22.02
2022-07-29T07:08:47.737Z,22.16
2022-07-29T07:11:14.925Z,22.51
2022-07-29T07:13:42.350Z,22.89
2022-07-29T07:16:09.569Z,23.00
2022-07-29T07:18:36.792Z,22.74
2022-07-29T07:21:06.012Z,22.67
2022-07-29T07:23:33.368Z,22.28
2022-07-29T07:26:00.630Z,22.22
2022-07-29T07:28:27.857Z,22.40
2022-07-29T07:30:55.131Z,22.86
2022-07-29T07:33:22.306Z,23.23
2022-07-29T07:35:49.552Z,23.73
2022-07-29T07:38:16.776Z,24.35
2022-07-29T07:40:43.949Z,24.16
2022-07-29T07:43:11.499Z,24.10
2022-07-29T07:45:38.805Z,25.04
2022-07-29T07:48:06.127Z,25.86
2022-07-29T07:50:33.349Z,26.20
2022-07-29T07:53:02.970Z,27.03
2022-07-29T07:55:42.420Z,28.00
2022-07-29T07:58:17.413Z,29.66
2022-07-29T08:00:44.758Z,30.67
2022-07-29T08:03:17.030Z,31.54
2022-07-29T08:05:44.845Z,31.48
2022-07-29T08:08:12.186Z,29.59
2022-07-29T08:10:54.773Z,29.67
2022-07-29T08:13:22.500Z,30.13
2022-07-29T08:15:58.755Z,30.77
2022-07-29T08:18:26.757Z,28.97
2022-07-29T08:20:54.403Z,29.56
2022-07-29T08:23:22.385Z,30.15
2022-07-29T08:25:50.465Z,29.97
2022-07-29T08:28:18.240Z,29.98
2022-07-29T08:30:45.448Z,28.18
2022-07-29T08:33:12.664Z,28.12
2022-07-29T08:35:49.440Z,28.30
2022-07-29T08:38:16.699Z,28.61
2022-07-29T08:40:43.890Z,28.45
2022-07-29T08:43:14.302Z,28.54
2022-07-29T08:45:48.818Z,28.38
2022-07-29T08:48:16.667Z,28.34
2022-07-29T08:50:43.927Z,27.72
2022-07-29T08:53:17.597Z,27.08
2022-07-29T08:55:45.699Z,26.92
2022-07-29T08:58:14.983Z,26.86
2022-07-29T09:00:43.761Z,26.82
2022-07-29T09:03:16.864Z,26.88
2022-07-29T09:05:48.069Z,26.64
2022-07-29T09:08:15.986Z,26.77
2022-07-29T09:10:43.573Z,26.97
2022-07-29T09:13:10.755Z,26.58
2022-07-29T09:15:38.022Z,26.60
2022-07-29T09:18:05.208Z,26.72
2022-07-29T09:20:51.158Z,26.47
2022-07-29T09:23:24.103Z,26.57
2022-07-29T09:25:51.930Z,26.51
2022-07-29T09:28:19.284Z,26.38
2022-07-29T09:30:53.248Z,26.41
2022-07-29T09:33:20.997Z,26.45
2022-07-29T09:35:59.180Z,26.28
2022-07-29T09:38:26.341Z,26.25
2022-07-29T09:40:57.848Z,26.02
2022-07-29T09:43:40.918Z,26.10
2022-07-29T09:46:17.341Z,26.20
2022-07-29T09:48:44.591Z,26.56
2022-07-29T09:51:20.764Z,26.89
2022-07-29T09:53:48.696Z,27.01
2022-07-29T09:56:15.883Z,26.37
2022-07-29T09:58:43.047Z,26.24
2022-07-29T10:01:11.527Z,26.67
2022-07-29T10:03:51.911Z,26.58
2022-07-29T10:06:19.140Z,26.43
2022-07-29T10:08:46.307Z,26.48
2022-07-29T10:11:14.283Z,26.53
2022-07-29T10:13:42.002Z,26.45
2022-07-29T10:16:09.758Z,26.35
2022-07-29T10:18:38.873Z,26.47
2022-07-29T10:21:06.167Z,26.70
2022-07-29T10:23:46.472Z,26.97
2022-07-29T10:26:15.581Z,27.26
2022-07-29T10:28:42.927Z,27.13
2022-07-29T10:31:12.337Z,27.13
2022-07-29T10:33:47.514Z,27.00
2022-07-29T10:36:15.484Z,27.12
2022-07-29T10:38:56.771Z,27.18
2022-07-29T10:41:43.777Z,27.18
2022-07-29T10:44:19.145Z,27.63
2022-07-29T10:46:47.081Z,27.78
2022-07-29T10:49:18.280Z,27.79
2022-07-29T10:51:51.603Z,28.23
2022-07-29T10:54:19.002Z,27.95
2022-07-29T10:56:46.156Z,28.06
2022-07-29T10:59:21.679Z,27.55
2022-07-29T11:01:52.697Z,27.66
2022-07-29T11:04:40.106Z,27.48
2022-07-29T11:07:10.803Z,27.33
2022-07-29T11:09:38.502Z,27.50
2022-07-29T11:12:29.340Z,27.80
2022-07-29T11:15:02.592Z,27.75
2022-07-29T11:17:47.072Z,27.58
2022-07-29T11:23:27.414Z,27.14
2022-07-29T11:26:27.405Z,27.15
2022-07-29T11:28:55.689Z,27.29
2022-07-29T11:31:33.983Z,27.78
2022-07-29T11:34:18.200Z,28.10
2022-07-29T11:37:07.069Z,27.76
2022-07-29T11:39:36.863Z,27.93
2022-07-29T11:42:28.144Z,28.02
2022-07-29T11:45:04.334Z,28.20
2022-07-29T11:47:49.034Z,28.08
2022-07-29T11:50:17.845Z,28.01
2022-07-29T11:52:49.790Z,27.99
2022-07-29T11:55:20.172Z,27.93
2022-07-29T11:57:48.699Z,28.08
2022-07-29T12:00:32.472Z,28.41
2022-07-29T12:03:00.584Z,28.36
2022-07-29T12:05:38.896Z,28.45
2022-07-29T12:08:17.192Z,28.18
2022-07-29T12:10:47.412Z,28.03
2022-07-29T12:13:15.860Z,28.18
2022-07-29T12:15:46.333Z,28.39
2022-07-29T12:18:15.436Z,28.34
2022-07-29T12:20:46.959Z,28.53
2022-07-29T12:23:14.538Z,28.56
2022-07-29T12:25:43.693Z,28.57
2022-07-29T12:28:14.270Z,28.68
2022-07-29T12:30:53.751Z,28.70
2022-07-29T12:33:28.564Z,28.63
2022-07-29T12:36:06.693Z,28.75
2022-07-29T12:38:37.292Z,28.81
2022-07-29T12:41:05.161Z,28.81
2022-07-29T12:43:32.435Z,28.78
2022-07-29T12:46:01.701Z,28.62
2022-07-29T12:48:38.929Z,28.44
2022-07-29T12:51:07.410Z,28.43
2022-07-29T12:53:34.733Z,28.45
2022-07-29T12:56:15.531Z,28.59
2022-07-29T12:58:51.550Z,28.46
2022-07-29T13:01:20.459Z,28.36
2022-07-29T13:03:57.045Z,28.41
2022-07-29T13:06:46.054Z,28.32
2022-07-29T13:09:16.933Z,28.50
2022-07-29T13:11:48.325Z,28.48
2022-07-29T13:14:30.812Z,28.39
2022-07-29T13:17:07.089Z,28.39
2022-07-29T13:19:37.328Z,28.30
2022-07-29T13:22:04.813Z,28.31
2022-07-29T13:24:31.968Z,28.27
2022-07-29T13:26:59.169Z,28.39
2022-07-29T13:29:31.375Z,28.39
2022-07-29T13:31:59.429Z,28.37
2022-07-29T13:34:26.848Z,28.27
2022-07-29T13:36:54.443Z,28.34
2022-07-29T13:39:52.718Z,28.13
2022-07-29T13:42:20.741Z,28.12
2022-07-29T13:44:49.703Z,28.17
2022-07-29T13:47:17.315Z,28.17
2022-07-29T13:49:44.612Z,28.29
2022-07-29T13:52:14.461Z,28.42
2022-07-29T13:54:42.727Z,28.22
2022-07-29T13:57:12.000Z,28.26
2022-07-29T13:59:40.509Z,28.13
2022-07-29T14:02:07.949Z,28.19
2022-07-29T14:04:35.598Z,28.18
2022-07-29T14:07:03.984Z,28.24
2022-07-29T14:09:41.471Z,28.15
2022-07-29T14:12:09.525Z,28.25
2022-07-29T14:14:37.637Z,28.30
2022-07-29T14:17:13.590Z,28.28
2022-07-29T14:19:40.953Z,28.29
2022-07-29T14:22:09.475Z,28.32
2022-07-29T14:24:38.438Z,28.42
2022-07-29T14:27:07.385Z,28.48
2022-07-29T14:29:38.162Z,28.34
2022-07-29T14:32:08.058Z,28.47
2022-07-29T14:34:37.955Z,28.42
2022-07-29T14:37:09.440Z,28.47
2022-07-29T14:39:46.213Z,28.52
2022-07-29T14:42:14.131Z,28.58
2022-07-29T14:44:42.452Z,28.27
2022-07-29T14:47:09.962Z,28.33
2022-07-29T14:49:37.244Z,28.39
2022-07-29T14:52:04.836Z,28.39
2022-07-29T14:54:32.074Z,28.30
2022-07-29T14:56:59.307Z,28.27
2022-07-29T14:59:27.261Z,28.22
2022-07-29T15:01:54.813Z,28.27
2022-07-29T15:04:22.177Z,28.22
2022-07-29T15:06:49.714Z,28.30
2022-07-29T15:09:16.928Z,28.18
2022-07-29T15:11:44.551Z,28.19
2022-07-29T15:14:11.783Z,28.23
2022-07-29T15:16:43.738Z,28.24
2022-07-29T15:19:14.099Z,28.21
2022-07-29T15:21:48.381Z,28.34
2022-07-29T15:24:17.637Z,28.41
2022-07-29T15:26:45.739Z,28.38
2022-07-29T15:29:13.069Z,28.43
2022-07-29T15:31:40.667Z,28.38
2022-07-29T15:34:08.835Z,28.41
2022-07-29T15:36:51.522Z,28.54
2022-07-29T15:39:20.696Z,28.50
2022-07-29T15:41:48.423Z,28.42
2022-07-29T15:44:15.700Z,28.43
2022-07-29T15:47:02.142Z,28.32
2022-07-29T15:49:48.273Z,28.35
2022-07-29T15:52:18.229Z,28.38
2022-07-29T15:54:45.879Z,28.43
2022-07-29T15:57:13.892Z,28.50
2022-07-29T15:59:41.311Z,28.53
2022-07-29T16:02:08.756Z,28.49
2022-07-29T16:04:36.571Z,28.39
2022-07-29T16:07:03.974Z,28.37
2022-07-29T16:09:31.245Z,28.37
2022-07-29T16:11:59.726Z,28.24
2022-07-29T16:14:30.306Z,28.17
2022-07-29T16:16:58.146Z,28.03
2022-07-29T16:19:25.597Z,27.98
2022-07-29T16:21:56.974Z,27.91
2022-07-29T16:24:29.787Z,27.98
2022-07-29T16:26:57.614Z,27.89
2022-07-29T16:29:25.119Z,27.78
2022-07-29T16:31:53.176Z,27.72
2022-07-29T16:34:20.471Z,27.75
2022-07-29T16:36:48.041Z,27.74
2022-07-29T16:39:15.360Z,27.77
2022-07-29T16:41:42.888Z,27.74
2022-07-29T16:44:10.183Z,27.79
2022-07-29T16:46:39.009Z,27.75
2022-07-29T16:49:08.848Z,27.59
2022-07-29T16:51:36.222Z,27.58
2022-07-29T16:54:03.457Z,27.59
2022-07-29T16:56:30.692Z,27.58
2022-07-29T16:58:58.769Z,27.71
2022-07-29T17:01:27.018Z,27.70
2022-07-29T17:04:06.364Z,27.63
2022-07-29T17:06:35.246Z,27.60
2022-07-29T17:09:06.660Z,27.59
2022-07-29T17:11:53.049Z,27.61
2022-07-29T17:14:29.483Z,27.56
2022-07-29T17:17:01.429Z,27.54
2022-07-29T17:19:35.358Z,27.45
2022-07-29T17:22:11.635Z,27.36
2022-07-29T17:24:40.837Z,27.32
2022-07-29T17:27:09.369Z,27.36
2022-07-29T17:29:36.698Z,27.24
2022-07-29T17:32:04.375Z,27.26
2022-07-29T17:34:38.841Z,27.32
2022-07-29T17:37:06.774Z,27.22
2022-07-29T17:39:35.563Z,27.07
2022-07-29T17:42:06.969Z,27.06
2022-07-29T17:44:36.350Z,27.04
2022-07-29T17:47:04.565Z,27.10
2022-07-29T17:49:32.173Z,27.03
2022-07-29T17:52:01.077Z,26.96
2022-07-29T17:54:29.718Z,26.90
2022-07-29T17:56:57.398Z,26.91
2022-07-29T17:59:24.874Z,26.82
2022-07-29T18:01:53.218Z,26.82
2022-07-29T18:04:21.309Z,26.80
2022-07-29T18:06:48.543Z,26.72
2022-07-29T18:09:15.968Z,26.65
2022-07-29T18:11:44.454Z,26.64
2022-07-29T18:14:13.480Z,26.61
2022-07-29T18:16:40.937Z,26.63
2022-07-29T18:19:08.264Z,26.55
2022-07-29T18:21:43.491Z,26.46
2022-07-29T18:24:21.479Z,26.44
2022-07-29T18:26:48.703Z,26.40
2022-07-29T18:29:16.425Z,26.31
2022-07-29T18:31:43.844Z,26.31
2022-07-29T18:34:11.161Z,26.30
2022-07-29T18:36:38.371Z,26.27
2022-07-29T18:39:05.654Z,26.27
2022-07-29T18:41:33.450Z,26.29
2022-07-29T18:44:00.896Z,26.22
2022-07-29T18:46:28.794Z,26.13
2022-07-29T18:48:57.403Z,26.06
2022-07-29T18:51:24.722Z,26.08
2022-07-29T18:53:52.599Z,26.14
2022-07-29T18:56:19.966Z,25.86
2022-07-29T18:58:48.560Z,25.75
2022-07-29T19:01:16.844Z,25.71
2022-07-29T19:03:44.206Z,25.60
2022-07-29T19:06:11.652Z,25.51
2022-07-29T19:08:38.933Z,25.53
2022-07-29T19:11:06.410Z,25.41
2022-07-29T19:13:34.340Z,25.24
2022-07-29T19:16:01.749Z,25.15
2022-07-29T19:18:29.354Z,25.19
2022-07-29T19:20:56.622Z,25.09
2022-07-29T19:23:23.934Z,25.10
2022-07-29T19:25:54.158Z,25.02
2022-07-29T19:28:22.185Z,24.95
2022-07-29T19:30:49.970Z,24.92
2022-07-29T19:33:18.932Z,24.88
2022-07-29T19:35:49.305Z,24.71
2022-07-29T19:38:19.360Z,24.72
2022-07-29T19:40:47.541Z,24.75
2022-07-29T19:43:51.760Z,24.72
2022-07-29T19:46:02.581Z,24.57
2022-07-29T19:48:29.832Z,24.48
2022-07-29T19:50:58.507Z,24.52
2022-07-29T19:53:25.789Z,24.40
2022-07-29T19:55:53.061Z,24.35
2022-07-29T19:58:22.388Z,24.35
2022-07-29T20:00:49.804Z,24.28
2022-07-29T20:03:17.113Z,24.28
2022-07-29T20:05:48.176Z,24.29
2022-07-29T20:08:15.913Z,24.21
2022-07-29T20:10:43.329Z,24.15
2022-07-29T20:13:10.623Z,24.11
2022-07-29T20:15:38.696Z,24.11
2022-07-29T20:18:06.112Z,24.09
2022-07-29T20:20:33.356Z,24.05
2022-07-29T20:23:02.250Z,24.02
2022-07-29T20:25:29.627Z,24.00
2022-07-29T20:27:57.008Z,23.91
2022-07-29T20:30:24.404Z,23.89
2022-07-29T20:32:52.333Z,23.79
2022-07-29T20:35:22.279Z,23.78
2022-07-29T20:37:55.486Z,23.68
2022-07-29T20:40:27.189Z,23.68
2022-07-29T20:42:55.452Z,23.64
2022-07-29T20:45:23.689Z,23.69
2022-07-29T20:47:52.022Z,23.55
2022-07-29T20:50:23.764Z,23.55
2022-07-29T20:52:52.271Z,23.48
2022-07-29T20:55:19.914Z,23.48
2022-07-29T20:57:47.565Z,23.52
2022-07-29T21:00:15.085Z,23.52
2022-07-29T21:02:42.701Z,23.43
2022-07-29T21:05:10.232Z,23.40
2022-07-29T21:07:37.469Z,23.35
2022-07-29T21:10:05.446Z,23.43
2022-07-29T21:12:33.832Z,23.35
2022-07-29T21:15:05.614Z,23.34
2022-07-29T21:17:38.902Z,23.29
2022-07-29T21:20:08.503Z,23.37
2022-07-29T21:22:40.734Z,23.21
2022-07-29T21:25:08.574Z,23.16
2022-07-29T21:27:54.337Z,23.05
2022-07-29T21:30:21.973Z,22.98
2022-07-29T21:32:49.498Z,23.08
2022-07-29T21:35:45.320Z,23.01
2022-07-29T21:38:04.546Z,22.94
2022-07-29T21:40:31.786Z,22.89
2022-07-29T21:42:59.128Z,22.87
2022-07-29T21:45:26.881Z,22.84
2022-07-29T21:47:54.506Z,22.83
2022-07-29T21:50:21.896Z,22.72
2022-07-29T21:52:49.144Z,22.66
2022-07-29T21:55:16.416Z,22.65
2022-07-29T21:57:46.624Z,22.68
2022-07-29T22:00:17.211Z,22.75
2022-07-29T22:02:44.721Z,22.68
2022-07-29T22:05:12.632Z,22.64
2022-07-29T22:07:54.192Z,22.73
2022-07-29T22:10:25.159Z,22.55
2022-07-29T22:12:56.685Z,22.51
2022-07-29T22:15:24.420Z,22.47
2022-07-29T22:17:52.092Z,22.39
2022-07-29T22:20:19.540Z,22.39
2022-07-29T22:22:51.110Z,22.45
2022-07-29T22:25:19.029Z,22.37
2022-07-29T22:27:46.685Z,22.35
2022-07-29T22:30:14.511Z,22.29
2022-07-29T22:32:44.269Z,22.30
2022-07-29T22:35:11.705Z,22.30
2022-07-29T22:37:39.852Z,22.32
2022-07-29T22:40:07.981Z,22.25
2022-07-29T22:42:35.541Z,22.23
2022-07-29T22:45:04.363Z,22.15
2022-07-29T22:47:46.162Z,22.12
2022-07-29T22:50:16.121Z,22.09
2022-07-29T22:52:43.327Z,22.08
2022-07-29T22:55:10.609Z,22.09
2022-07-29T22:57:37.818Z,22.01
2022-07-29T23:00:06.364Z,21.97
2022-07-29T23:02:33.826Z,21.97
2022-07-29T23:05:01.039Z,21.97
2022-07-29T23:07:28.317Z,21.87
2022-07-29T23:09:55.515Z,21.91
2022-07-29T23:12:22.749Z,21.88
2022-07-29T23:14:49.959Z,21.83
2022-07-29T23:17:17.239Z,21.76
2022-07-29T23:19:44.550Z,21.68
2022-07-29T23:22:11.973Z,21.74
2022-07-29T23:24:39.240Z,21.71
2022-07-29T23:27:08.315Z,21.70
2022-07-29T23:29:36.846Z,21.74
2022-07-29T23:32:04.388Z,21.78
2022-07-29T23:34:31.579Z,21.72
2022-07-29T23:36:59.327Z,21.81
2022-07-29T23:39:26.751Z,21.62
2022-07-29T23:41:53.997Z,21.52
2022-07-29T23:44:21.322Z,21.54
2022-07-29T23:46:48.620Z,21.58
2022-07-29T23:49:16.238Z,21.51
2022-07-29T23:51:43.491Z,21.51
2022-07-29T23:54:10.717Z,21.56
2022-07-29T23:56:37.911Z,21.47
2022-07-29T23:59:05.968Z,21.44
